createdAt,value
2017-12-19T00:00:02.530Z,34.13
2017-12-19T00:02:29.952Z,32.83
2017-12-19T00:04:57.921Z,31.20
2017-12-19T00:07:25.353Z,32.03
2017-12-19T00:09:52.787Z,29.80
2017-12-19T00:12:20.963Z,28.80
2017-12-19T00:14:49.701Z,29.50
2017-12-19T00:17:17.141Z,32.00
2017-12-19T00:19:44.555Z,31.57
2017-12-19T00:22:12.671Z,28.57
2017-12-19T00:24:40.637Z,28.90
2017-12-19T00:27:08.055Z,30.37
2017-12-19T00:29:36.239Z,30.17
2017-12-19T00:32:06.110Z,25.40
2017-12-19T00:34:33.538Z,30.40
2017-12-19T00:37:01.723Z,30.30
2017-12-19T00:39:29.138Z,31.40
2017-12-19T00:41:57.339Z,29.63
2017-12-19T00:44:25.439Z,25.90
2017-12-19T00:46:52.859Z,31.93
2017-12-19T00:49:24.004Z,31.57
2017-12-19T00:51:51.814Z,30.83
2017-12-19T00:54:19.210Z,23.33
2017-12-19T00:56:47.387Z,28.83
2017-12-19T00:59:14.807Z,26.00
2017-12-19T01:01:43.116Z,25.77
2017-12-19T01:04:11.431Z,27.20
2017-12-19T01:06:38.858Z,25.43
2017-12-19T01:09:06.699Z,28.47
2017-12-19T01:11:34.133Z,30.50
2017-12-19T01:14:01.569Z,35.07
2017-12-19T01:16:28.988Z,30.37
2017-12-19T01:18:56.461Z,31.80
2017-12-19T01:21:24.620Z,35.27
2017-12-19T01:23:52.820Z,32.50
2017-12-19T01:26:20.240Z,36.67
2017-12-19T01:28:47.673Z,37.53
2017-12-19T01:31:15.913Z,34.97
2017-12-19T01:33:43.349Z,35.50
2017-12-19T01:36:10.772Z,32.93
2017-12-19T01:38:38.208Z,35.07
2017-12-19T01:41:06.178Z,37.77
2017-12-19T01:43:33.620Z,32.57
2017-12-19T01:46:01.045Z,32.37
2017-12-19T01:48:29.001Z,30.87
2017-12-19T01:50:57.189Z,30.73
2017-12-19T01:53:24.616Z,29.43
2017-12-19T01:55:52.041Z,35.67
2017-12-19T01:58:19.474Z,39.60
2017-12-19T02:00:46.901Z,36.93
2017-12-19T02:03:14.326Z,35.17
2017-12-19T02:05:41.748Z,36.27
2017-12-19T02:08:09.175Z,39.47
2017-12-19T02:10:37.904Z,37.73
2017-12-19T02:13:05.345Z,32.10
2017-12-19T02:15:32.763Z,32.73
2017-12-19T02:18:01.610Z,30.83
2017-12-19T02:20:29.835Z,30.83
2017-12-19T02:22:58.064Z,31.40
2017-12-19T02:25:25.514Z,36.27
2017-12-19T02:27:53.496Z,33.60
2017-12-19T02:30:21.316Z,42.87
2017-12-19T02:32:48.746Z,38.83
2017-12-19T02:35:17.360Z,36.30
2017-12-19T02:37:44.816Z,33.73
2017-12-19T02:40:12.260Z,29.83
2017-12-19T02:42:52.170Z,29.37
2017-12-19T02:45:19.608Z,31.37
2017-12-19T02:47:47.035Z,33.70
2017-12-19T02:50:14.460Z,35.30
2017-12-19T02:52:44.813Z,28.37
2017-12-19T02:55:12.237Z,27.77
2017-12-19T02:57:40.200Z,29.37
2017-12-19T03:00:11.227Z,30.17
2017-12-19T03:02:38.680Z,31.13
2017-12-19T03:05:08.214Z,31.67
2017-12-19T03:07:36.441Z,42.53
2017-12-19T03:10:04.186Z,40.03
2017-12-19T03:12:39.050Z,42.57
2017-12-19T03:15:07.843Z,40.07
2017-12-19T03:17:35.263Z,38.70
2017-12-19T03:20:02.688Z,36.63
2017-12-19T03:22:31.341Z,38.07
2017-12-19T03:24:58.767Z,37.70
2017-12-19T03:27:26.205Z,38.63
2017-12-19T03:29:54.940Z,35.00
2017-12-19T03:32:22.369Z,35.77
2017-12-19T03:34:50.236Z,34.23
2017-12-19T03:37:17.668Z,37.03
2017-12-19T03:39:45.868Z,38.33
2017-12-19T03:42:13.288Z,40.77
2017-12-19T03:44:41.485Z,35.03
2017-12-19T03:47:08.913Z,38.07
2017-12-19T03:49:36.345Z,40.93
2017-12-19T03:52:04.133Z,40.57
2017-12-19T03:54:31.566Z,40.10
2017-12-19T03:56:59.405Z,34.60
2017-12-19T03:59:27.396Z,39.67
2017-12-19T04:01:55.362Z,37.47
2017-12-19T04:04:22.799Z,31.43
2017-12-19T04:06:50.230Z,37.93
2017-12-19T04:09:19.081Z,38.40
2017-12-19T04:11:50.241Z,31.77
2017-12-19T04:14:17.672Z,39.00
2017-12-19T04:16:45.624Z,31.57
2017-12-19T04:19:13.058Z,30.17
2017-12-19T04:21:40.485Z,32.77
2017-12-19T04:24:08.688Z,39.50
2017-12-19T04:26:36.527Z,33.30
2017-12-19T04:29:04.374Z,30.63
2017-12-19T04:31:31.821Z,35.03
2017-12-19T04:33:59.228Z,36.33
2017-12-19T04:36:26.657Z,33.70
2017-12-19T04:38:54.079Z,33.67
2017-12-19T04:41:21.549Z,35.23
2017-12-19T04:43:49.256Z,33.47
2017-12-19T04:46:16.669Z,31.73
2017-12-19T04:48:44.105Z,26.80
2017-12-19T04:51:11.528Z,25.97
2017-12-19T04:53:38.947Z,24.73
2017-12-19T04:56:06.809Z,28.47
2017-12-19T04:58:53.284Z,32.20
2017-12-19T05:01:20.712Z,32.40
2017-12-19T05:03:48.140Z,34.23
2017-12-19T05:06:16.339Z,32.97
2017-12-19T05:08:45.225Z,37.03
2017-12-19T05:11:13.431Z,34.13
2017-12-19T05:13:40.851Z,35.07
2017-12-19T05:16:09.045Z,30.80
2017-12-19T05:18:36.463Z,34.20
2017-12-19T05:21:05.781Z,38.93
2017-12-19T05:23:33.969Z,36.97
2017-12-19T05:26:02.176Z,33.17
2017-12-19T05:28:29.588Z,38.73
2017-12-19T05:30:57.785Z,33.57
2017-12-19T05:33:25.204Z,34.40
2017-12-19T05:35:52.635Z,34.30
2017-12-19T05:38:20.071Z,29.87
2017-12-19T05:40:47.500Z,32.90
2017-12-19T05:43:14.929Z,30.13
2017-12-19T05:45:42.361Z,33.93
2017-12-19T05:48:10.229Z,31.47
2017-12-19T05:50:37.657Z,32.43
2017-12-19T05:53:05.093Z,35.00
2017-12-19T05:55:32.529Z,33.70
2017-12-19T05:58:00.268Z,32.97
2017-12-19T06:00:27.700Z,37.97
2017-12-19T06:02:55.124Z,31.03
2017-12-19T06:05:22.562Z,36.47
2017-12-19T06:07:49.980Z,33.50
2017-12-19T06:10:17.404Z,39.37
2017-12-19T06:12:44.844Z,39.60
2017-12-19T06:15:13.154Z,39.90
2017-12-19T06:17:40.565Z,31.90
2017-12-19T06:20:07.997Z,39.13
2017-12-19T06:22:35.433Z,39.03
2017-12-19T06:25:03.252Z,38.47
2017-12-19T06:27:30.629Z,39.30
2017-12-19T06:29:58.057Z,37.77
2017-12-19T06:32:25.489Z,43.63
2017-12-19T06:34:52.916Z,38.73
2017-12-19T06:37:20.362Z,37.33
2017-12-19T06:39:47.829Z,39.73
2017-12-19T06:42:15.248Z,37.30
2017-12-19T06:44:43.444Z,32.53
2017-12-19T06:47:11.687Z,40.97
2017-12-19T06:49:39.120Z,42.13
2017-12-19T06:52:06.588Z,47.27
2017-12-19T06:54:34.021Z,44.17
2017-12-19T06:57:02.926Z,44.27
2017-12-19T06:59:30.368Z,39.17
2017-12-19T07:01:57.797Z,42.03
2017-12-19T07:04:25.616Z,44.57
2017-12-19T07:06:53.034Z,50.30
2017-12-19T07:09:20.465Z,40.17
2017-12-19T07:11:48.660Z,46.03
2017-12-19T07:14:16.892Z,49.77
2017-12-19T07:16:44.324Z,39.97
2017-12-19T07:19:13.476Z,39.80
2017-12-19T07:21:40.904Z,43.70
2017-12-19T07:24:08.339Z,47.20
2017-12-19T07:26:38.718Z,38.83
2017-12-19T07:29:06.143Z,49.97
2017-12-19T07:31:33.586Z,47.57
2017-12-19T07:34:01.032Z,47.37
2017-12-19T07:36:28.469Z,47.93
2017-12-19T07:38:55.892Z,42.03
2017-12-19T07:41:23.333Z,52.10
2017-12-19T07:43:51.551Z,41.30
2017-12-19T07:46:18.981Z,51.33
2017-12-19T07:48:46.404Z,49.73
2017-12-19T07:51:14.250Z,51.90
2017-12-19T07:53:41.685Z,42.93
2017-12-19T07:56:09.144Z,43.80
2017-12-19T07:58:36.572Z,47.20
2017-12-19T08:01:04.773Z,38.13
2017-12-19T08:03:33.644Z,37.17
2017-12-19T08:06:01.106Z,39.93
2017-12-19T08:08:28.541Z,35.87
2017-12-19T08:10:56.509Z,36.50
2017-12-19T08:13:25.261Z,33.20
2017-12-19T08:15:53.260Z,33.17
2017-12-19T08:18:20.684Z,29.13
2017-12-19T08:20:48.119Z,33.60
2017-12-19T08:23:15.550Z,33.03
2017-12-19T08:25:45.525Z,28.10
2017-12-19T08:28:12.966Z,25.87
2017-12-19T08:30:40.790Z,29.67
2017-12-19T08:33:08.955Z,27.10
2017-12-19T08:35:37.157Z,27.63
2017-12-19T08:38:05.373Z,28.33
2017-12-19T08:40:33.338Z,25.70
2017-12-19T08:43:00.767Z,26.90
2017-12-19T08:45:28.201Z,26.37
2017-12-19T08:47:56.168Z,21.87
2017-12-19T08:50:23.714Z,21.57
2017-12-19T08:52:52.584Z,23.87
2017-12-19T08:55:20.260Z,23.20
2017-12-19T08:57:48.971Z,24.77
2017-12-19T09:00:16.420Z,25.27
2017-12-19T09:02:45.877Z,26.23
2017-12-19T09:05:13.323Z,24.77
2017-12-19T09:07:40.745Z,24.43
2017-12-19T09:10:08.766Z,25.23
2017-12-19T09:12:36.873Z,23.23
2017-12-19T09:15:05.864Z,22.70
2017-12-19T09:17:34.486Z,23.10
2017-12-19T09:20:01.908Z,23.50
2017-12-19T09:22:29.343Z,20.27
2017-12-19T09:24:57.189Z,20.60
2017-12-19T09:27:24.638Z,24.40
2017-12-19T09:29:52.339Z,21.20
2017-12-19T09:32:19.761Z,23.73
2017-12-19T09:34:47.200Z,25.47
2017-12-19T09:37:14.637Z,24.30
2017-12-19T09:39:42.073Z,22.17
2017-12-19T09:42:10.056Z,25.63
2017-12-19T09:44:37.901Z,23.77
2017-12-19T09:47:05.333Z,24.60
2017-12-19T09:49:33.174Z,25.87
2017-12-19T09:52:00.709Z,26.27
2017-12-19T09:54:28.140Z,25.37
2017-12-19T09:56:56.301Z,23.63
2017-12-19T09:59:24.325Z,26.40
2017-12-19T10:01:51.769Z,25.00
2017-12-19T10:04:19.207Z,26.93
2017-12-19T10:06:47.414Z,22.37
2017-12-19T10:09:14.841Z,23.57
2017-12-19T10:11:43.207Z,22.90
2017-12-19T10:14:10.608Z,24.93
2017-12-19T10:16:38.045Z,24.90
2017-12-19T10:19:06.246Z,26.60
2017-12-19T10:21:33.684Z,22.73
2017-12-19T10:24:01.177Z,20.77
2017-12-19T10:26:29.017Z,25.33
2017-12-19T10:28:56.456Z,22.83
2017-12-19T10:31:23.892Z,22.30
2017-12-19T10:33:52.478Z,21.13
2017-12-19T10:36:19.895Z,21.27
2017-12-19T10:38:47.362Z,23.20
2017-12-19T10:41:15.216Z,22.03
2017-12-19T10:43:42.642Z,22.23
2017-12-19T10:46:10.100Z,22.43
2017-12-19T10:48:37.582Z,19.90
2017-12-19T10:51:05.091Z,20.40
2017-12-19T10:53:33.388Z,22.17
2017-12-19T10:56:01.627Z,21.33
2017-12-19T10:58:29.568Z,21.37
2017-12-19T11:00:57.005Z,23.00
2017-12-19T11:03:24.502Z,20.63
2017-12-19T11:05:51.953Z,19.63
2017-12-19T11:08:19.393Z,24.10
2017-12-19T11:10:46.832Z,21.20
2017-12-19T11:13:15.029Z,22.03
2017-12-19T11:15:43.005Z,21.13
2017-12-19T11:18:10.949Z,19.77
2017-12-19T11:20:38.402Z,20.77
2017-12-19T11:23:09.124Z,19.93
2017-12-19T11:25:36.970Z,19.00
2017-12-19T11:28:05.180Z,21.70
2017-12-19T11:30:33.937Z,18.23
2017-12-19T11:33:02.124Z,21.87
2017-12-19T11:35:29.946Z,17.60
2017-12-19T11:37:57.375Z,19.53
2017-12-19T11:40:24.809Z,19.03
2017-12-19T11:42:54.146Z,20.83
2017-12-19T11:45:22.120Z,18.53
2017-12-19T11:47:49.562Z,19.67
2017-12-19T11:50:16.991Z,19.37
2017-12-19T11:52:44.516Z,19.60
2017-12-19T11:55:12.795Z,18.70
2017-12-19T11:57:41.012Z,17.33
2017-12-19T12:00:09.731Z,19.07
2017-12-19T12:02:37.166Z,19.50
2017-12-19T12:05:04.601Z,16.90
2017-12-19T12:07:32.738Z,18.53
2017-12-19T12:10:00.176Z,23.50
2017-12-19T12:12:27.608Z,18.67
2017-12-19T12:14:55.946Z,20.37
2017-12-19T12:17:24.158Z,18.73
2017-12-19T12:19:51.588Z,21.67
2017-12-19T12:22:19.061Z,20.93
2017-12-19T12:24:47.218Z,17.93
2017-12-19T12:27:17.463Z,20.73
2017-12-19T12:29:44.897Z,23.77
2017-12-19T12:32:13.518Z,23.13
2017-12-19T12:34:40.950Z,19.87
2017-12-19T12:37:08.705Z,25.20
2017-12-19T12:39:36.143Z,20.77
2017-12-19T12:42:04.354Z,21.40
2017-12-19T12:44:34.357Z,20.80
2017-12-19T12:47:02.504Z,22.37
2017-12-19T12:49:30.696Z,25.83
2017-12-19T12:51:58.128Z,20.77
2017-12-19T12:54:25.982Z,19.37
2017-12-19T12:56:53.424Z,29.53
2017-12-19T12:59:21.833Z,22.40
2017-12-19T13:01:49.298Z,21.03
2017-12-19T13:04:17.437Z,20.97
2017-12-19T13:06:44.875Z,22.20
2017-12-19T13:09:13.134Z,23.60
2017-12-19T13:11:40.594Z,22.23
2017-12-19T13:14:08.021Z,19.87
2017-12-19T13:16:36.245Z,20.00
2017-12-19T13:19:04.287Z,21.80
2017-12-19T13:21:34.450Z,19.10
2017-12-19T13:24:02.262Z,20.57
2017-12-19T13:26:30.457Z,22.83
2017-12-19T13:28:57.889Z,20.10
2017-12-19T13:31:32.778Z,21.07
2017-12-19T13:34:00.769Z,23.43
2017-12-19T13:36:28.388Z,20.57
2017-12-19T13:38:55.830Z,21.27
2017-12-19T13:41:23.684Z,25.10
2017-12-19T13:43:51.116Z,24.93
2017-12-19T13:46:18.557Z,23.67
2017-12-19T13:48:46.421Z,22.77
2017-12-19T13:51:13.858Z,20.03
2017-12-19T13:53:41.979Z,21.80
2017-12-19T13:56:09.404Z,22.03
2017-12-19T13:58:36.934Z,22.07
2017-12-19T14:01:04.388Z,18.80
2017-12-19T14:03:31.811Z,20.03
2017-12-19T14:06:01.057Z,17.53
2017-12-19T14:08:29.694Z,21.23
2017-12-19T14:10:57.139Z,21.57
2017-12-19T14:13:24.980Z,19.63
2017-12-19T14:15:52.692Z,18.17
2017-12-19T14:18:20.131Z,19.10
2017-12-19T14:20:48.324Z,18.07
2017-12-19T14:23:15.752Z,19.53
2017-12-19T14:25:43.332Z,18.40
2017-12-19T14:28:11.697Z,17.80
2017-12-19T14:30:41.522Z,19.50
2017-12-19T14:33:09.717Z,18.63
2017-12-19T14:35:37.554Z,23.17
2017-12-19T14:38:05.756Z,29.53
2017-12-19T14:40:33.188Z,26.50
2017-12-19T14:43:01.384Z,29.27
2017-12-19T14:45:28.834Z,27.57
2017-12-19T14:47:56.927Z,23.90
2017-12-19T14:50:24.377Z,22.77
2017-12-19T14:52:51.814Z,23.30
2017-12-19T14:55:20.017Z,19.77
2017-12-19T14:57:47.455Z,22.63
2017-12-19T15:00:14.885Z,20.27
2017-12-19T15:02:42.322Z,23.67
2017-12-19T15:05:09.775Z,21.40
2017-12-19T15:07:37.728Z,23.77
2017-12-19T15:10:05.186Z,24.47
2017-12-19T15:12:39.181Z,27.90
2017-12-19T15:15:06.620Z,24.37
2017-12-19T15:17:34.078Z,26.03
2017-12-19T15:20:02.264Z,24.70
2017-12-19T15:22:29.821Z,25.43
2017-12-19T15:24:57.656Z,23.93
2017-12-19T15:27:25.109Z,25.43
2017-12-19T15:29:52.567Z,26.00
2017-12-19T15:32:20.536Z,24.90
2017-12-19T15:34:47.965Z,28.47
2017-12-19T15:37:16.370Z,29.23
2017-12-19T15:39:50.905Z,30.23
2017-12-19T15:42:19.112Z,28.90
2017-12-19T15:44:46.540Z,26.80
2017-12-19T15:47:14.750Z,25.97
2017-12-19T15:49:42.238Z,25.87
2017-12-19T15:52:15.470Z,29.63
2017-12-19T15:54:51.472Z,33.80
2017-12-19T15:57:18.885Z,31.37
2017-12-19T15:59:46.330Z,27.20
2017-12-19T16:02:27.678Z,28.17
2017-12-19T16:04:55.958Z,24.77
2017-12-19T16:07:23.367Z,27.30
2017-12-19T16:09:51.006Z,27.53
2017-12-19T16:12:22.298Z,30.13
2017-12-19T16:14:51.821Z,26.97
2017-12-19T16:17:21.708Z,27.03
2017-12-19T16:19:49.903Z,29.00
2017-12-19T16:22:38.462Z,25.97
2017-12-19T16:25:06.158Z,36.33
2017-12-19T16:27:33.563Z,30.10
2017-12-19T16:30:01.752Z,34.40
2017-12-19T16:32:40.277Z,33.10
2017-12-19T16:35:07.714Z,38.00
2017-12-19T16:37:35.705Z,39.47
2017-12-19T16:40:03.408Z,35.63
2017-12-19T16:42:30.831Z,36.63
2017-12-19T16:44:58.648Z,32.27
2017-12-19T16:47:26.684Z,36.13
2017-12-19T16:49:54.117Z,31.87
2017-12-19T16:52:22.263Z,32.53
2017-12-19T16:54:49.700Z,34.73
2017-12-19T16:57:18.416Z,33.50
2017-12-19T16:59:45.834Z,36.07
2017-12-19T17:02:13.260Z,39.13
2017-12-19T17:04:40.914Z,33.80
2017-12-19T17:07:11.664Z,34.33
2017-12-19T17:09:39.526Z,34.40
2017-12-19T17:12:06.952Z,41.47
2017-12-19T17:14:34.386Z,39.63
2017-12-19T17:17:02.767Z,40.60
2017-12-19T17:19:30.184Z,36.97
2017-12-19T17:22:01.762Z,37.67
2017-12-19T17:24:29.193Z,38.20
2017-12-19T17:26:56.666Z,42.13
2017-12-19T17:29:24.867Z,39.43
2017-12-19T17:31:52.346Z,41.87
2017-12-19T17:34:19.800Z,47.17
2017-12-19T17:36:47.229Z,44.80
2017-12-19T17:39:14.672Z,41.33
2017-12-19T17:41:42.860Z,39.97
2017-12-19T17:44:10.359Z,42.57
2017-12-19T17:46:37.798Z,43.83
2017-12-19T17:49:05.230Z,46.90
2017-12-19T17:51:32.652Z,47.73
2017-12-19T17:54:14.339Z,48.50
2017-12-19T17:56:41.753Z,48.17
2017-12-19T17:59:09.194Z,55.90
2017-12-19T18:01:36.616Z,48.57
2017-12-19T18:04:05.275Z,56.27
2017-12-19T18:06:32.699Z,56.13
2017-12-19T18:09:00.152Z,59.20
2017-12-19T18:11:28.061Z,56.50
2017-12-19T18:14:01.930Z,54.67
2017-12-19T18:16:30.296Z,63.33
2017-12-19T18:18:58.149Z,56.47
2017-12-19T18:21:26.325Z,64.07
2017-12-19T18:23:57.004Z,58.93
2017-12-19T18:26:25.194Z,59.47
2017-12-19T18:28:52.737Z,65.27
2017-12-19T18:31:20.994Z,56.90
2017-12-19T18:33:50.211Z,60.73
2017-12-19T18:36:17.655Z,63.30
2017-12-19T18:38:45.122Z,55.07
2017-12-19T18:41:15.386Z,60.67
2017-12-19T18:43:42.817Z,63.70
2017-12-19T18:46:10.242Z,59.60
2017-12-19T18:48:37.675Z,62.53
2017-12-19T18:51:05.874Z,58.30
2017-12-19T18:53:34.160Z,61.50
2017-12-19T18:56:01.602Z,61.60
2017-12-19T18:58:29.029Z,59.83
2017-12-19T19:00:57.289Z,58.30
2017-12-19T19:03:25.317Z,62.40
2017-12-19T19:05:52.721Z,55.53
2017-12-19T19:08:20.181Z,61.97
2017-12-19T19:10:47.629Z,63.30
2017-12-19T19:13:15.789Z,68.40
2017-12-19T19:15:43.741Z,61.50
2017-12-19T19:18:11.182Z,76.00
2017-12-19T19:20:41.161Z,67.30
2017-12-19T19:23:10.542Z,66.37
2017-12-19T19:25:38.505Z,65.87
2017-12-19T19:28:06.547Z,65.83
2017-12-19T19:30:34.406Z,75.47
2017-12-19T19:33:01.816Z,68.93
2017-12-19T19:35:29.244Z,60.43
2017-12-19T19:38:00.336Z,74.80
2017-12-19T19:40:28.577Z,62.80
2017-12-19T19:42:58.596Z,57.27
2017-12-19T19:45:26.042Z,63.63
2017-12-19T19:48:01.725Z,60.23
2017-12-19T19:50:30.374Z,65.00
2017-12-19T19:52:58.354Z,57.90
2017-12-19T19:55:25.817Z,61.53
2017-12-19T19:57:53.245Z,58.27
2017-12-19T20:00:20.863Z,63.13
2017-12-19T20:02:49.070Z,55.50
2017-12-19T20:05:16.519Z,67.43
2017-12-19T20:07:44.092Z,60.57
2017-12-19T20:10:11.504Z,60.43
2017-12-19T20:12:47.165Z,70.10
2017-12-19T20:15:14.618Z,60.60
2017-12-19T20:17:43.363Z,67.17
2017-12-19T20:20:11.322Z,59.70
2017-12-19T20:22:38.763Z,61.43
2017-12-19T20:25:06.725Z,62.80
2017-12-19T20:27:34.144Z,56.13
2017-12-19T20:30:02.716Z,52.50
2017-12-19T20:32:30.557Z,49.70
2017-12-19T20:35:02.036Z,55.00
2017-12-19T20:37:29.632Z,49.70
2017-12-19T20:39:57.481Z,47.53
2017-12-19T20:42:26.198Z,45.57
2017-12-19T20:44:53.642Z,44.10
2017-12-19T20:47:21.090Z,51.23
2017-12-19T20:49:48.519Z,42.73
2017-12-19T20:52:15.964Z,44.23
2017-12-19T20:54:43.382Z,47.20
2017-12-19T20:57:11.249Z,38.03
2017-12-19T20:59:38.693Z,39.40
2017-12-19T21:02:06.578Z,43.20
2017-12-19T21:04:36.686Z,39.40
2017-12-19T21:07:04.098Z,40.97
2017-12-19T21:12:07.338Z,37.00
2017-12-19T21:14:34.769Z,37.80
2017-12-19T21:17:04.126Z,36.73
2017-12-19T21:19:32.097Z,35.03
2017-12-19T21:21:59.525Z,41.30
2017-12-19T21:24:26.958Z,39.77
2017-12-19T21:26:55.441Z,35.27
2017-12-19T21:29:23.636Z,38.97
2017-12-19T21:31:51.064Z,33.10
2017-12-19T21:34:18.509Z,35.07
2017-12-19T21:36:46.196Z,45.97
2017-12-19T21:39:13.632Z,38.57
2017-12-19T21:41:41.074Z,35.97
2017-12-19T21:44:08.531Z,38.20
2017-12-19T21:46:35.957Z,37.37
2017-12-19T21:49:15.265Z,41.23
2017-12-19T21:51:43.418Z,32.47
2017-12-19T21:54:10.847Z,38.40
2017-12-19T21:56:38.286Z,39.90
2017-12-19T21:59:06.123Z,41.77
2017-12-19T22:01:34.321Z,42.23
2017-12-19T22:04:01.753Z,43.23
2017-12-19T22:06:29.192Z,48.80
2017-12-19T22:08:57.393Z,43.70
2017-12-19T22:11:25.752Z,48.90
2017-12-19T22:13:53.955Z,43.70
2017-12-19T22:16:21.418Z,39.50
2017-12-19T22:18:48.885Z,41.30
2017-12-19T22:21:18.222Z,46.00
2017-12-19T22:23:46.150Z,41.03
2017-12-19T22:26:13.580Z,44.70
2017-12-19T22:28:41.105Z,41.63
2017-12-19T22:31:08.536Z,39.13
2017-12-19T22:33:35.968Z,43.90
2017-12-19T22:36:03.404Z,39.93
2017-12-19T22:38:31.594Z,42.60
2017-12-19T22:40:59.029Z,45.90
2017-12-19T22:43:27.211Z,41.83
2017-12-19T22:45:54.643Z,39.90
2017-12-19T22:48:22.078Z,48.07
2017-12-19T22:50:49.526Z,42.23
2017-12-19T22:53:16.966Z,41.33
2017-12-19T22:55:44.805Z,41.37
2017-12-19T22:58:12.232Z,43.37
2017-12-19T23:00:39.669Z,46.93
2017-12-19T23:03:07.089Z,41.90
2017-12-19T23:05:35.244Z,43.53
2017-12-19T23:08:03.431Z,42.87
2017-12-19T23:10:30.862Z,39.77
2017-12-19T23:12:59.056Z,45.63
2017-12-19T23:15:33.315Z,45.83
2017-12-19T23:18:00.776Z,47.20
2017-12-19T23:20:30.831Z,49.47
2017-12-19T23:22:59.049Z,50.70
2017-12-19T23:25:27.093Z,56.30
2017-12-19T23:27:54.526Z,49.03
2017-12-19T23:30:22.070Z,52.47
2017-12-19T23:32:49.505Z,45.70
2017-12-19T23:35:17.053Z,52.30
2017-12-19T23:37:45.253Z,55.13
2017-12-19T23:40:14.982Z,49.30
2017-12-19T23:42:42.389Z,52.70
2017-12-19T23:45:09.833Z,49.20
2017-12-19T23:47:37.261Z,50.33
2017-12-19T23:50:04.741Z,51.03
2017-12-19T23:52:32.192Z,55.23
2017-12-19T23:55:01.312Z,44.67
2017-12-19T23:57:28.736Z,47.83
2017-12-19T23:59:57.108Z,52.00
